createdAt,value
2017-02-28T00:00:23.100Z,1009.89
2017-02-28T00:01:03.825Z,1009.9
2017-02-28T00:01:44.479Z,1009.89
2017-02-28T00:02:25.132Z,1009.88
2017-02-28T00:03:05.775Z,1009.89
2017-02-28T00:03:46.410Z,1009.88
2017-02-28T00:04:27.061Z,1009.87
2017-02-28T00:05:07.710Z,1009.88
2017-02-28T00:05:48.347Z,1009.87
2017-02-28T00:06:29.008Z,1009.91
2017-02-28T00:07:09.753Z,1009.91
2017-02-28T00:07:50.389Z,1009.89
2017-02-28T00:08:31.104Z,1009.9
2017-02-28T00:09:11.777Z,1009.9
2017-02-28T00:09:52.473Z,1009.9
2017-02-28T00:10:33.140Z,1009.92
2017-02-28T00:11:13.845Z,1009.89
2017-02-28T00:11:54.536Z,1009.9
2017-02-28T00:12:35.195Z,1009.91
2017-02-28T00:13:15.962Z,1009.88
2017-02-28T00:13:56.609Z,1009.9
2017-02-28T00:14:37.325Z,1009.89
2017-02-28T00:15:17.972Z,1009.84
2017-02-28T00:15:58.684Z,1009.86
2017-02-28T00:16:39.404Z,1009.87
2017-02-28T00:17:20.033Z,1009.86
2017-02-28T00:18:00.698Z,1009.85
2017-02-28T00:18:41.334Z,1009.85
2017-02-28T00:19:22.020Z,1009.87
2017-02-28T00:20:02.693Z,1009.85
2017-02-28T00:20:43.329Z,1009.9
2017-02-28T00:21:24.000Z,1009.86
2017-02-28T00:22:04.658Z,1009.85
2017-02-28T00:22:45.296Z,1009.92
2017-02-28T00:23:25.979Z,1009.87
2017-02-28T00:24:06.616Z,1009.88
2017-02-28T00:24:47.327Z,1009.88
2017-02-28T00:25:27.994Z,1009.85
2017-02-28T00:26:08.629Z,1009.9
2017-02-28T00:26:49.300Z,1009.91
2017-02-28T00:27:30.034Z,1009.91
2017-02-28T00:28:10.687Z,1009.88
2017-02-28T00:28:51.320Z,1009.88
2017-02-28T00:29:32.061Z,1009.92
2017-02-28T00:30:12.703Z,1009.88
2017-02-28T00:30:53.344Z,1009.86
2017-02-28T00:31:33.985Z,1009.87
2017-02-28T00:32:14.661Z,1009.85
2017-02-28T00:32:55.323Z,1009.88
2017-02-28T00:33:36.017Z,1009.9
2017-02-28T00:34:16.671Z,1009.89
2017-02-28T00:34:57.311Z,1009.86
2017-02-28T00:35:37.943Z,1009.88
2017-02-28T00:36:18.588Z,1009.87
2017-02-28T00:36:59.219Z,1009.81
2017-02-28T00:37:39.869Z,1009.83
2017-02-28T00:38:20.520Z,1009.83
2017-02-28T00:39:01.173Z,1009.81
2017-02-28T00:39:41.857Z,1009.79
2017-02-28T00:40:22.487Z,1009.78
2017-02-28T00:41:03.137Z,1009.78
2017-02-28T00:41:43.885Z,1009.74
2017-02-28T00:42:24.602Z,1009.74
2017-02-28T00:43:05.240Z,1009.76
2017-02-28T00:43:45.876Z,1009.74
2017-02-28T00:44:26.574Z,1009.73
2017-02-28T00:45:07.206Z,1009.7
2017-02-28T00:45:47.852Z,1009.74
2017-02-28T00:46:28.524Z,1009.71
2017-02-28T00:47:09.254Z,1009.69
2017-02-28T00:47:49.898Z,1009.73
2017-02-28T00:48:30.566Z,1009.75
2017-02-28T00:49:11.296Z,1009.72
2017-02-28T00:49:52.020Z,1009.72
2017-02-28T00:50:32.664Z,1009.68
2017-02-28T00:51:13.335Z,1009.67
2017-02-28T00:51:54.086Z,1009.67
2017-02-28T00:52:34.739Z,1009.66
2017-02-28T00:53:15.455Z,1009.66
2017-02-28T00:53:56.160Z,1009.64
2017-02-28T00:54:36.844Z,1009.64
2017-02-28T00:55:17.493Z,1009.62
2017-02-28T00:55:58.217Z,1009.59
2017-02-28T00:56:38.898Z,1009.58
2017-02-28T00:57:19.579Z,1009.58
2017-02-28T00:58:00.253Z,1009.6
2017-02-28T00:58:40.982Z,1009.6
2017-02-28T00:59:21.633Z,1009.55
2017-02-28T01:00:02.265Z,1009.53
2017-02-28T01:00:43.008Z,1009.52
2017-02-28T01:01:23.645Z,1009.52
2017-02-28T01:02:04.290Z,1009.52
2017-02-28T01:02:45.006Z,1009.53
2017-02-28T01:03:25.637Z,1009.49
2017-02-28T01:04:06.284Z,1009.55
2017-02-28T01:04:46.985Z,1009.52
2017-02-28T01:05:27.627Z,1009.5
2017-02-28T01:06:08.397Z,1009.48
2017-02-28T01:06:49.059Z,1009.45
2017-02-28T01:07:29.765Z,1009.44
2017-02-28T01:08:10.399Z,1009.44
2017-02-28T01:08:51.035Z,1009.42
2017-02-28T01:09:31.729Z,1009.44
2017-02-28T01:10:12.442Z,1009.43
2017-02-28T01:10:53.112Z,1009.46
2017-02-28T01:11:33.760Z,1009.45
2017-02-28T01:12:14.485Z,1009.44
2017-02-28T01:12:55.160Z,1009.42
2017-02-28T01:13:35.800Z,1009.37
2017-02-28T01:14:16.554Z,1009.42
2017-02-28T01:14:57.241Z,1009.42
2017-02-28T01:15:37.966Z,1009.38
2017-02-28T01:16:18.517Z,1009.43
2017-02-28T01:16:59.249Z,1009.42
2017-02-28T01:17:39.880Z,1009.44
2017-02-28T01:18:20.509Z,1009.43
2017-02-28T01:19:01.219Z,1009.39
2017-02-28T01:19:41.873Z,1009.46
2017-02-28T01:20:22.513Z,1009.43
2017-02-28T01:21:03.244Z,1009.42
2017-02-28T01:21:43.955Z,1009.47
2017-02-28T01:22:24.596Z,1009.45
2017-02-28T01:23:05.249Z,1009.41
2017-02-28T01:23:45.883Z,1009.43
2017-02-28T01:24:26.520Z,1009.43
2017-02-28T01:25:07.166Z,1009.44
2017-02-28T01:25:47.840Z,1009.4
2017-02-28T01:26:28.573Z,1009.44
2017-02-28T01:27:09.152Z,1009.42
2017-02-28T01:27:49.823Z,1009.45
2017-02-28T01:28:30.514Z,1009.42
2017-02-28T01:29:11.173Z,1009.4
2017-02-28T01:29:51.926Z,1009.41
2017-02-28T01:30:32.630Z,1009.36
2017-02-28T01:31:13.270Z,1009.36
2017-02-28T01:31:54.004Z,1009.38
2017-02-28T01:32:34.682Z,1009.32
2017-02-28T01:33:15.313Z,1009.34
2017-02-28T01:33:55.955Z,1009.32
2017-02-28T01:34:36.666Z,1009.26
2017-02-28T01:35:17.305Z,1009.25
2017-02-28T01:35:57.953Z,1009.28
2017-02-28T01:36:38.618Z,1009.27
2017-02-28T01:37:19.331Z,1009.26
2017-02-28T01:37:59.989Z,1009.27
2017-02-28T01:38:40.739Z,1009.27
2017-02-28T01:39:21.389Z,1009.29
2017-02-28T01:40:02.067Z,1009.27
2017-02-28T01:40:42.691Z,1009.28
2017-02-28T01:41:23.351Z,1009.28
2017-02-28T01:42:04.056Z,1009.27
2017-02-28T01:42:44.686Z,1009.32
2017-02-28T01:43:25.371Z,1009.33
2017-02-28T01:44:06.049Z,1009.34
2017-02-28T01:44:46.681Z,1009.32
2017-02-28T01:45:27.333Z,1009.39
2017-02-28T01:46:07.962Z,1009.33
2017-02-28T01:46:48.613Z,1009.36
2017-02-28T01:47:29.328Z,1009.34
2017-02-28T01:48:09.960Z,1009.33
2017-02-28T01:48:50.594Z,1009.28
2017-02-28T01:49:31.299Z,1009.28
2017-02-28T01:50:11.933Z,1009.21
2017-02-28T01:50:52.589Z,1009.23
2017-02-28T01:51:33.236Z,1009.23
2017-02-28T01:52:13.893Z,1009.21
2017-02-28T01:52:54.581Z,1009.23
2017-02-28T01:53:35.200Z,1009.16
2017-02-28T01:54:15.901Z,1009.15
2017-02-28T01:54:56.541Z,1009.13
2017-02-28T01:55:37.181Z,1009.17
2017-02-28T01:56:17.893Z,1009.1
2017-02-28T01:56:58.564Z,1009.16
2017-02-28T01:57:39.190Z,1009.21
2017-02-28T01:58:19.842Z,1009.19
2017-02-28T01:59:00.559Z,1009.16
2017-02-28T01:59:41.319Z,1009.13
2017-02-28T02:00:21.878Z,1009.12
2017-02-28T02:01:02.609Z,1009.13
2017-02-28T02:01:43.306Z,1009.1
2017-02-28T02:02:23.941Z,1009.13
2017-02-28T02:03:04.617Z,1009.15
2017-02-28T02:03:45.247Z,1009.11
2017-02-28T02:04:25.893Z,1009.15
2017-02-28T02:05:06.571Z,1009.1
2017-02-28T02:05:47.268Z,1009.1
2017-02-28T02:06:27.907Z,1009.08
2017-02-28T02:07:08.563Z,1009.09
2017-02-28T02:07:49.201Z,1009.1
2017-02-28T02:08:29.836Z,1009.13
2017-02-28T02:09:10.557Z,1009.15
2017-02-28T02:09:51.274Z,1009.09
2017-02-28T02:10:31.945Z,1009.14
2017-02-28T02:11:12.580Z,1009.15
2017-02-28T02:11:53.339Z,1009.16
2017-02-28T02:12:34.061Z,1009.12
2017-02-28T02:13:14.795Z,1009.14
2017-02-28T02:13:55.424Z,1009.16
2017-02-28T02:14:36.052Z,1009.15
2017-02-28T02:15:16.695Z,1009.14
2017-02-28T02:15:57.320Z,1009.1
2017-02-28T02:16:38.032Z,1009.11
2017-02-28T02:17:18.665Z,1009.05
2017-02-28T02:17:59.303Z,1009.07
2017-02-28T02:18:39.988Z,1009.06
2017-02-28T02:19:20.628Z,1009.05
2017-02-28T02:20:01.266Z,1009.06
2017-02-28T02:20:41.917Z,1009.02
2017-02-28T02:21:22.553Z,1009.04
2017-02-28T02:22:03.179Z,1009.04
2017-02-28T02:22:43.855Z,1009
2017-02-28T02:23:24.487Z,1009.03
2017-02-28T02:24:05.130Z,1009
2017-02-28T02:24:45.785Z,1009.01
2017-02-28T02:25:26.429Z,1008.98
2017-02-28T02:26:07.091Z,1008.98
2017-02-28T02:26:47.805Z,1008.98
2017-02-28T02:27:28.505Z,1008.94
2017-02-28T02:28:09.142Z,1008.94
2017-02-28T02:28:49.781Z,1008.95
2017-02-28T02:29:30.489Z,1008.9
2017-02-28T02:30:11.134Z,1008.94
2017-02-28T02:30:51.768Z,1008.9
2017-02-28T02:31:32.419Z,1008.92
2017-02-28T02:32:13.061Z,1008.92
2017-02-28T02:32:53.714Z,1008.94
2017-02-28T02:33:34.363Z,1008.91
2017-02-28T02:34:14.990Z,1008.93
2017-02-28T02:34:55.625Z,1008.92
2017-02-28T02:35:36.317Z,1008.91
2017-02-28T02:36:16.946Z,1008.91
2017-02-28T02:36:57.592Z,1008.86
2017-02-28T02:37:38.281Z,1008.84
2017-02-28T02:38:18.911Z,1008.89
2017-02-28T02:38:59.537Z,1008.86
2017-02-28T02:39:40.211Z,1008.85
2017-02-28T02:40:20.855Z,1008.88
2017-02-28T02:41:01.497Z,1008.9
2017-02-28T02:41:42.142Z,1008.91
2017-02-28T02:42:22.765Z,1008.89
2017-02-28T02:43:03.403Z,1008.87
2017-02-28T02:43:44.128Z,1008.84
2017-02-28T02:44:24.824Z,1008.82
2017-02-28T02:45:05.464Z,1008.8
2017-02-28T02:45:46.134Z,1008.82
2017-02-28T02:46:26.809Z,1008.78
2017-02-28T02:47:07.437Z,1008.79
2017-02-28T02:47:48.070Z,1008.8
2017-02-28T02:48:28.801Z,1008.8
2017-02-28T02:49:09.451Z,1008.79
2017-02-28T02:49:50.075Z,1008.75
2017-02-28T02:50:30.756Z,1008.77
2017-02-28T02:51:11.389Z,1008.74
2017-02-28T02:51:52.035Z,1008.77
2017-02-28T02:52:32.691Z,1008.77
2017-02-28T02:53:13.314Z,1008.77
2017-02-28T02:53:53.945Z,1008.77
2017-02-28T02:54:34.619Z,1008.77
2017-02-28T02:55:15.247Z,1008.78
2017-02-28T02:55:55.873Z,1008.74
2017-02-28T02:56:36.558Z,1008.74
2017-02-28T02:57:17.182Z,1008.75
2017-02-28T02:57:57.824Z,1008.73
2017-02-28T02:58:38.503Z,1008.71
2017-02-28T02:59:19.157Z,1008.69
2017-02-28T02:59:59.789Z,1008.74
2017-02-28T03:00:40.523Z,1008.73
2017-02-28T03:01:21.168Z,1008.68
2017-02-28T03:02:01.800Z,1008.7
2017-02-28T03:02:42.458Z,1008.68
2017-02-28T03:03:23.141Z,1008.72
2017-02-28T03:04:03.780Z,1008.71
2017-02-28T03:04:44.437Z,1008.72
2017-02-28T03:05:25.140Z,1008.69
2017-02-28T03:06:05.837Z,1008.7
2017-02-28T03:06:46.476Z,1008.72
2017-02-28T03:07:27.102Z,1008.72
2017-02-28T03:08:07.739Z,1008.71
2017-02-28T03:08:48.389Z,1008.65
2017-02-28T03:09:29.007Z,1008.65
2017-02-28T03:10:09.637Z,1008.65
2017-02-28T03:10:50.270Z,1008.65
2017-02-28T03:11:30.994Z,1008.61
2017-02-28T03:12:11.611Z,1008.63
2017-02-28T03:12:52.243Z,1008.63
2017-02-28T03:13:32.876Z,1008.62
2017-02-28T03:14:13.533Z,1008.63
2017-02-28T03:14:54.159Z,1008.64
2017-02-28T03:15:34.793Z,1008.65
2017-02-28T03:16:15.498Z,1008.67
2017-02-28T03:16:56.121Z,1008.67
2017-02-28T03:17:36.798Z,1008.62
2017-02-28T03:18:17.433Z,1008.63
2017-02-28T03:18:58.069Z,1008.61
2017-02-28T03:19:38.726Z,1008.59
2017-02-28T03:20:19.357Z,1008.6
2017-02-28T03:21:00.002Z,1008.61
2017-02-28T03:21:40.684Z,1008.6
2017-02-28T03:22:21.307Z,1008.59
2017-02-28T03:23:01.932Z,1008.6
2017-02-28T03:23:42.620Z,1008.52
2017-02-28T03:24:23.243Z,1008.55
2017-02-28T03:25:03.869Z,1008.53
2017-02-28T03:25:44.544Z,1008.54
2017-02-28T03:26:25.197Z,1008.59
2017-02-28T03:27:05.834Z,1008.54
2017-02-28T03:27:46.532Z,1008.52
2017-02-28T03:28:27.212Z,1008.53
2017-02-28T03:29:07.934Z,1008.53
2017-02-28T03:29:48.516Z,1008.54
2017-02-28T03:30:29.219Z,1008.52
2017-02-28T03:31:09.863Z,1008.49
2017-02-28T03:31:50.485Z,1008.46
2017-02-28T03:32:31.198Z,1008.45
2017-02-28T03:33:11.826Z,1008.49
2017-02-28T03:33:52.451Z,1008.49
2017-02-28T03:34:33.080Z,1008.46
2017-02-28T03:35:13.758Z,1008.45
2017-02-28T03:35:54.409Z,1008.43
2017-02-28T03:36:35.029Z,1008.44
2017-02-28T03:37:15.681Z,1008.4
2017-02-28T03:37:56.328Z,1008.45
2017-02-28T03:38:37.033Z,1008.41
2017-02-28T03:39:17.695Z,1008.44
2017-02-28T03:39:58.320Z,1008.41
2017-02-28T03:40:38.969Z,1008.43
2017-02-28T03:41:19.717Z,1008.4
2017-02-28T03:42:00.342Z,1008.42
2017-02-28T03:42:41.084Z,1008.38
2017-02-28T03:43:21.780Z,1008.36
2017-02-28T03:44:02.465Z,1008.39
2017-02-28T03:44:43.091Z,1008.38
2017-02-28T03:45:23.737Z,1008.39
2017-02-28T03:46:04.383Z,1008.36
2017-02-28T03:46:45.012Z,1008.38
2017-02-28T03:47:25.638Z,1008.42
2017-02-28T03:48:06.283Z,1008.41
2017-02-28T03:48:46.908Z,1008.38
2017-02-28T03:49:27.604Z,1008.39
2017-02-28T03:50:08.240Z,1008.44
2017-02-28T03:50:48.868Z,1008.4
2017-02-28T03:51:29.520Z,1008.41
2017-02-28T03:52:10.142Z,1008.41
2017-02-28T03:52:50.768Z,1008.42
2017-02-28T03:53:31.444Z,1008.4
2017-02-28T03:54:12.099Z,1008.37
2017-02-28T03:54:52.730Z,1008.42
2017-02-28T03:55:33.441Z,1008.4
2017-02-28T03:56:14.057Z,1008.41
2017-02-28T03:56:54.682Z,1008.43
2017-02-28T03:57:35.360Z,1008.41
2017-02-28T03:58:15.989Z,1008.42
2017-02-28T03:58:56.620Z,1008.44
2017-02-28T03:59:37.278Z,1008.4
2017-02-28T04:00:17.904Z,1008.45
2017-02-28T04:00:58.535Z,1008.39
2017-02-28T04:01:39.164Z,1008.42
2017-02-28T04:02:19.857Z,1008.39
2017-02-28T04:03:00.509Z,1008.42
2017-02-28T04:03:41.215Z,1008.4
2017-02-28T04:04:21.879Z,1008.45
2017-02-28T04:05:02.528Z,1008.42
2017-02-28T04:05:43.203Z,1008.45
2017-02-28T04:06:23.956Z,1008.45
2017-02-28T04:07:04.579Z,1008.45
2017-02-28T04:07:45.223Z,1008.43
2017-02-28T04:08:25.883Z,1008.47
2017-02-28T04:09:06.536Z,1008.46
2017-02-28T04:09:47.167Z,1008.46
2017-02-28T04:10:27.906Z,1008.47
2017-02-28T04:11:08.529Z,1008.45
2017-02-28T04:11:49.176Z,1008.44
2017-02-28T04:12:29.843Z,1008.45
2017-02-28T04:13:10.469Z,1008.4
2017-02-28T04:13:51.104Z,1008.42
2017-02-28T04:14:31.780Z,1008.42
2017-02-28T04:15:12.414Z,1008.44
2017-02-28T04:15:53.059Z,1008.44
2017-02-28T04:16:33.803Z,1008.44
2017-02-28T04:17:14.444Z,1008.46
2017-02-28T04:17:55.084Z,1008.47
2017-02-28T04:18:35.721Z,1008.45
2017-02-28T04:19:16.356Z,1008.45
2017-02-28T04:19:57.022Z,1008.49
2017-02-28T04:20:37.660Z,1008.5
2017-02-28T04:21:18.289Z,1008.5
2017-02-28T04:21:58.940Z,1008.47
2017-02-28T04:22:39.582Z,1008.46
2017-02-28T04:23:20.231Z,1008.48
2017-02-28T04:24:00.921Z,1008.49
2017-02-28T04:24:41.553Z,1008.53
2017-02-28T04:25:22.266Z,1008.52
2017-02-28T04:26:02.935Z,1008.54
2017-02-28T04:26:43.570Z,1008.54
2017-02-28T04:27:24.216Z,1008.53
2017-02-28T04:28:04.917Z,1008.58
2017-02-28T04:28:45.555Z,1008.59
2017-02-28T04:29:26.247Z,1008.56
2017-02-28T04:30:06.895Z,1008.55
2017-02-28T04:30:47.542Z,1008.58
2017-02-28T04:31:28.190Z,1008.59
2017-02-28T04:32:08.823Z,1008.58
2017-02-28T04:32:49.464Z,1008.59
2017-02-28T04:33:30.106Z,1008.63
2017-02-28T04:34:10.736Z,1008.6
2017-02-28T04:34:51.371Z,1008.57
2017-02-28T04:35:32.052Z,1008.57
2017-02-28T04:36:12.689Z,1008.6
2017-02-28T04:36:53.386Z,1008.61
2017-02-28T04:37:34.031Z,1008.62
2017-02-28T04:38:14.701Z,1008.61
2017-02-28T04:38:55.395Z,1008.57
2017-02-28T04:39:36.022Z,1008.56
2017-02-28T04:40:16.697Z,1008.61
2017-02-28T04:40:57.350Z,1008.6
2017-02-28T04:41:37.979Z,1008.58
2017-02-28T04:42:18.676Z,1008.61
2017-02-28T04:42:59.343Z,1008.61
2017-02-28T04:43:39.996Z,1008.58
2017-02-28T04:44:20.650Z,1008.64
2017-02-28T04:45:01.293Z,1008.62
2017-02-28T04:45:41.940Z,1008.64
2017-02-28T04:46:22.630Z,1008.69
2017-02-28T04:47:03.256Z,1008.68
2017-02-28T04:47:43.980Z,1008.68
2017-02-28T04:48:24.565Z,1008.67
2017-02-28T04:49:05.206Z,1008.68
2017-02-28T04:49:45.847Z,1008.71
2017-02-28T04:50:26.466Z,1008.68
2017-02-28T04:51:07.103Z,1008.73
2017-02-28T04:51:47.730Z,1008.73
2017-02-28T04:52:28.427Z,1008.71
2017-02-28T04:53:09.079Z,1008.72
2017-02-28T04:53:49.758Z,1008.69
2017-02-28T04:54:30.410Z,1008.7
2017-02-28T04:55:11.038Z,1008.73
2017-02-28T04:55:51.726Z,1008.7
2017-02-28T04:56:32.359Z,1008.7
2017-02-28T04:57:13.071Z,1008.72
2017-02-28T04:57:53.737Z,1008.71
2017-02-28T04:58:34.357Z,1008.7
2017-02-28T04:59:15.042Z,1008.7
2017-02-28T04:59:55.709Z,1008.71
2017-02-28T05:00:36.354Z,1008.66
2017-02-28T05:01:17.018Z,1008.66
2017-02-28T05:01:57.696Z,1008.67
2017-02-28T05:02:38.336Z,1008.66
2017-02-28T05:03:18.992Z,1008.67
2017-02-28T05:03:59.639Z,1008.65
2017-02-28T05:04:40.285Z,1008.66
2017-02-28T05:05:20.915Z,1008.73
2017-02-28T05:06:01.543Z,1008.72
2017-02-28T05:06:42.215Z,1008.7
2017-02-28T05:07:22.845Z,1008.71
2017-02-28T05:08:03.498Z,1008.69
2017-02-28T05:08:44.149Z,1008.7
2017-02-28T05:09:24.774Z,1008.72
2017-02-28T05:10:05.404Z,1008.7
2017-02-28T05:10:46.070Z,1008.72
2017-02-28T05:11:26.677Z,1008.73
2017-02-28T05:12:07.404Z,1008.74
2017-02-28T05:12:48.120Z,1008.73
2017-02-28T05:13:28.721Z,1008.72
2017-02-28T05:14:09.442Z,1008.73
2017-02-28T05:14:50.119Z,1008.74
2017-02-28T05:15:30.746Z,1008.73
2017-02-28T05:16:11.403Z,1008.7
2017-02-28T05:16:52.089Z,1008.7
2017-02-28T05:17:32.707Z,1008.74
2017-02-28T05:18:13.401Z,1008.7
2017-02-28T05:18:54.027Z,1008.74
2017-02-28T05:19:34.668Z,1008.77
2017-02-28T05:20:15.358Z,1008.76
2017-02-28T05:20:55.985Z,1008.75
2017-02-28T05:21:36.662Z,1008.8
2017-02-28T05:22:17.277Z,1008.8
2017-02-28T05:22:57.908Z,1008.82
2017-02-28T05:23:38.558Z,1008.78
2017-02-28T05:24:19.203Z,1008.75
2017-02-28T05:24:59.970Z,1008.74
2017-02-28T05:25:40.668Z,1008.75
2017-02-28T05:26:21.302Z,1008.75
2017-02-28T05:27:01.928Z,1008.74
2017-02-28T05:27:42.569Z,1008.73
2017-02-28T05:28:23.214Z,1008.72
2017-02-28T05:29:03.939Z,1008.7
2017-02-28T05:29:44.662Z,1008.7
2017-02-28T05:30:25.392Z,1008.7
2017-02-28T05:31:05.932Z,1008.68
2017-02-28T05:31:46.577Z,1008.74
2017-02-28T05:32:27.238Z,1008.77
2017-02-28T05:33:07.865Z,1008.79
2017-02-28T05:33:48.509Z,1008.77
2017-02-28T05:34:29.249Z,1008.79
2017-02-28T05:35:09.807Z,1008.77
2017-02-28T05:35:50.445Z,1008.78
2017-02-28T05:36:31.140Z,1008.73
2017-02-28T05:37:11.787Z,1008.77
2017-02-28T05:37:52.420Z,1008.78
2017-02-28T05:38:33.080Z,1008.79
2017-02-28T05:39:13.719Z,1008.81
2017-02-28T05:39:54.335Z,1008.82
2017-02-28T05:40:35.060Z,1008.86
2017-02-28T05:41:15.716Z,1008.86
2017-02-28T05:41:56.366Z,1008.87
2017-02-28T05:42:36.990Z,1008.87
2017-02-28T05:43:17.620Z,1008.91
2017-02-28T05:43:58.314Z,1008.86
2017-02-28T05:44:39.002Z,1008.89
2017-02-28T05:45:19.642Z,1008.89
2017-02-28T05:46:00.285Z,1008.92
2017-02-28T05:46:40.914Z,1008.93
2017-02-28T05:47:21.571Z,1008.89
2017-02-28T05:48:02.295Z,1008.89
2017-02-28T05:48:42.959Z,1008.97
2017-02-28T05:49:23.607Z,1008.9
2017-02-28T05:50:04.226Z,1008.94
2017-02-28T05:50:44.884Z,1008.9
2017-02-28T05:51:25.536Z,1008.94
2017-02-28T05:52:06.173Z,1009
2017-02-28T05:52:46.815Z,1008.99
2017-02-28T05:53:27.460Z,1008.98
2017-02-28T05:54:08.083Z,1008.99
2017-02-28T05:54:48.821Z,1008.95
2017-02-28T05:55:29.449Z,1009.01
2017-02-28T05:56:10.083Z,1008.98
2017-02-28T05:56:50.714Z,1008.97
2017-02-28T05:57:32.047Z,1008.96
2017-02-28T05:58:12.735Z,1008.97
2017-02-28T05:58:53.419Z,1008.99
2017-02-28T05:59:34.046Z,1009.02
2017-02-28T06:00:14.689Z,1009.04
2017-02-28T06:00:55.419Z,1009
2017-02-28T06:01:36.046Z,1009.01
2017-02-28T06:02:16.756Z,1009.01
2017-02-28T06:02:57.444Z,1008.97
2017-02-28T06:03:38.193Z,1009.01
2017-02-28T06:04:18.851Z,1009
2017-02-28T06:04:59.568Z,1009
2017-02-28T06:05:40.705Z,1008.97
2017-02-28T06:06:21.377Z,1009.05
2017-02-28T06:07:02.012Z,1009
2017-02-28T06:07:42.638Z,1009.04
2017-02-28T06:08:23.330Z,1009.01
2017-02-28T06:09:03.969Z,1009
2017-02-28T06:09:44.596Z,1009.01
2017-02-28T06:10:25.372Z,1009
2017-02-28T06:11:06.085Z,1008.98
2017-02-28T06:11:46.781Z,1008.98
2017-02-28T06:12:27.354Z,1008.97
2017-02-28T06:13:08.007Z,1009
2017-02-28T06:13:48.647Z,1008.99
2017-02-28T06:14:29.350Z,1009
2017-02-28T06:15:10.048Z,1009
2017-02-28T06:15:50.678Z,1009.05
2017-02-28T06:16:31.317Z,1009.04
2017-02-28T06:17:11.987Z,1009.07
2017-02-28T06:17:52.696Z,1009.06
2017-02-28T06:18:33.325Z,1009.06
2017-02-28T06:19:14.034Z,1009.11
2017-02-28T06:19:54.761Z,1009.1
2017-02-28T06:20:35.417Z,1009.13
2017-02-28T06:21:16.019Z,1009.16
2017-02-28T06:21:56.673Z,1009.16
2017-02-28T06:22:37.307Z,1009.15
2017-02-28T06:23:17.949Z,1009.19
2017-02-28T06:23:58.583Z,1009.2
2017-02-28T06:24:39.219Z,1009.13
2017-02-28T06:25:19.846Z,1009.2
2017-02-28T06:26:00.531Z,1009.21
2017-02-28T06:26:41.963Z,1009.19
2017-02-28T06:27:21.796Z,1009.19
2017-02-28T06:28:02.532Z,1009.19
2017-02-28T06:28:43.164Z,1009.19
2017-02-28T06:29:23.788Z,1009.2
2017-02-28T06:30:04.486Z,1009.19
2017-02-28T06:30:45.139Z,1009.2
2017-02-28T06:31:25.759Z,1009.18
2017-02-28T06:32:06.421Z,1009.17
2017-02-28T06:32:47.049Z,1009.21
2017-02-28T06:33:27.681Z,1009.24
2017-02-28T06:34:08.364Z,1009.22
2017-02-28T06:34:48.991Z,1009.24
2017-02-28T06:35:29.614Z,1009.22
2017-02-28T06:36:10.320Z,1009.22
2017-02-28T06:36:50.960Z,1009.21
2017-02-28T06:37:31.604Z,1009.21
2017-02-28T06:38:12.323Z,1009.28
2017-02-28T06:38:53.036Z,1009.29
2017-02-28T06:39:33.763Z,1009.25
2017-02-28T06:40:14.308Z,1009.28
2017-02-28T06:40:54.938Z,1009.3
2017-02-28T06:41:35.575Z,1009.32
2017-02-28T06:42:16.218Z,1009.29
2017-02-28T06:42:56.882Z,1009.3
2017-02-28T06:43:37.505Z,1009.31
2017-02-28T06:44:18.155Z,1009.35
2017-02-28T06:44:58.830Z,1009.35
2017-02-28T06:45:39.464Z,1009.37
2017-02-28T06:46:20.110Z,1009.37
2017-02-28T06:47:00.833Z,1009.41
2017-02-28T06:47:41.467Z,1009.42
2017-02-28T06:48:22.099Z,1009.44
2017-02-28T06:49:02.732Z,1009.5
2017-02-28T06:49:43.360Z,1009.54
2017-02-28T06:50:23.996Z,1009.6
2017-02-28T06:51:04.627Z,1009.55
2017-02-28T06:51:45.388Z,1009.61
2017-02-28T06:52:26.038Z,1009.61
2017-02-28T06:53:06.750Z,1009.66
2017-02-28T06:53:47.392Z,1009.63
2017-02-28T06:54:28.022Z,1009.68
2017-02-28T06:55:08.643Z,1009.69
2017-02-28T06:55:49.372Z,1009.69
2017-02-28T06:56:30.005Z,1009.65
2017-02-28T06:57:10.628Z,1009.74
2017-02-28T06:57:51.317Z,1009.78
2017-02-28T06:58:31.963Z,1009.7
2017-02-28T06:59:12.653Z,1009.68
2017-02-28T06:59:53.344Z,1009.67
2017-02-28T07:00:33.976Z,1009.69
2017-02-28T07:01:14.604Z,1009.64
2017-02-28T07:01:55.300Z,1009.69
2017-02-28T07:02:35.932Z,1009.69
2017-02-28T07:03:16.571Z,1009.66
2017-02-28T07:03:57.199Z,1009.7
2017-02-28T07:04:37.840Z,1009.66
2017-02-28T07:05:18.466Z,1009.71
2017-02-28T07:05:59.097Z,1009.73
2017-02-28T07:06:39.730Z,1009.72
2017-02-28T07:07:20.359Z,1009.71
2017-02-28T07:08:01.079Z,1009.74
2017-02-28T07:08:41.706Z,1009.75
2017-02-28T07:09:22.334Z,1009.75
2017-02-28T07:10:02.988Z,1009.77
2017-02-28T07:10:43.664Z,1009.75
2017-02-28T07:11:24.296Z,1009.79
2017-02-28T07:12:05.025Z,1009.79
2017-02-28T07:12:45.726Z,1009.82
2017-02-28T07:13:26.355Z,1009.8
2017-02-28T07:14:07.057Z,1009.82
2017-02-28T07:14:47.696Z,1009.84
2017-02-28T07:15:28.325Z,1009.83
2017-02-28T07:16:08.948Z,1009.84
2017-02-28T07:16:49.615Z,1009.86
2017-02-28T07:17:30.249Z,1009.84
2017-02-28T07:18:10.938Z,1009.85
2017-02-28T07:18:51.639Z,1009.85
2017-02-28T07:19:32.272Z,1009.87
2017-02-28T07:20:12.891Z,1009.85
2017-02-28T07:20:53.587Z,1009.86
2017-02-28T07:21:34.212Z,1009.87
2017-02-28T07:22:14.852Z,1009.88
2017-02-28T07:22:55.518Z,1009.9
2017-02-28T07:23:36.206Z,1009.9
2017-02-28T07:24:16.827Z,1009.92
2017-02-28T07:24:57.550Z,1009.91
2017-02-28T07:25:38.290Z,1009.93
2017-02-28T07:26:19.012Z,1009.93
2017-02-28T07:26:59.563Z,1009.98
2017-02-28T07:27:40.290Z,1009.98
2017-02-28T07:28:21.019Z,1010
2017-02-28T07:29:01.653Z,1009.98
2017-02-28T07:29:42.303Z,1010
2017-02-28T07:30:22.935Z,1010
2017-02-28T07:31:03.560Z,1009.99
2017-02-28T07:31:44.270Z,1009.96
2017-02-28T07:32:24.979Z,1009.98
2017-02-28T07:33:05.604Z,1009.96
2017-02-28T07:33:46.316Z,1010.02
2017-02-28T07:34:26.946Z,1010.02
2017-02-28T07:35:07.569Z,1010.03
2017-02-28T07:35:48.189Z,1010.06
2017-02-28T07:36:28.861Z,1010
2017-02-28T07:37:09.491Z,1010.03
2017-02-28T07:37:50.210Z,1010.04
2017-02-28T07:38:30.841Z,1010.08
2017-02-28T07:39:11.553Z,1010.11
2017-02-28T07:39:52.198Z,1010.1
2017-02-28T07:40:32.824Z,1010.11
2017-02-28T07:41:13.557Z,1010.13
2017-02-28T07:41:54.189Z,1010.12
2017-02-28T07:42:34.889Z,1010.11
2017-02-28T07:43:15.564Z,1010.1
2017-02-28T07:43:56.194Z,1010.1
2017-02-28T07:44:36.845Z,1010.1
2017-02-28T07:45:17.530Z,1010.12
2017-02-28T07:45:58.163Z,1010.15
2017-02-28T07:46:38.881Z,1010.15
2017-02-28T07:47:19.558Z,1010.17
2017-02-28T07:48:00.188Z,1010.18
2017-02-28T07:48:40.815Z,1010.16
2017-02-28T07:49:21.477Z,1010.12
2017-02-28T07:50:02.094Z,1010.12
2017-02-28T07:50:42.719Z,1010.11
2017-02-28T07:51:23.349Z,1010.16
2017-02-28T07:52:04.083Z,1010.13
2017-02-28T07:52:44.720Z,1010.14
2017-02-28T07:53:25.475Z,1010.16
2017-02-28T07:54:06.134Z,1010.14
2017-02-28T07:54:46.769Z,1010.15
2017-02-28T07:55:27.523Z,1010.17
2017-02-28T07:56:08.174Z,1010.14
2017-02-28T07:56:48.909Z,1010.13
2017-02-28T07:57:29.566Z,1010.18
2017-02-28T07:58:10.268Z,1010.16
2017-02-28T07:58:50.939Z,1010.16
2017-02-28T07:59:31.570Z,1010.14
2017-02-28T08:00:12.232Z,1010.14
2017-02-28T08:00:52.954Z,1010.14
2017-02-28T08:01:33.626Z,1010.14
2017-02-28T08:02:14.256Z,1010.15
2017-02-28T08:02:54.888Z,1010.17
2017-02-28T08:03:35.552Z,1010.2
2017-02-28T08:04:16.185Z,1010.16
2017-02-28T08:04:56.815Z,1010.17
2017-02-28T08:05:37.484Z,1010.14
2017-02-28T08:06:18.113Z,1010.17
2017-02-28T08:06:58.731Z,1010.2
2017-02-28T08:07:39.413Z,1010.22
2017-02-28T08:08:20.031Z,1010.18
2017-02-28T08:09:00.674Z,1010.22
2017-02-28T08:09:41.339Z,1010.23
2017-02-28T08:10:21.986Z,1010.25
2017-02-28T08:11:02.712Z,1010.23
2017-02-28T08:11:43.358Z,1010.28
2017-02-28T08:12:23.984Z,1010.27
2017-02-28T08:13:04.715Z,1010.28
2017-02-28T08:13:45.373Z,1010.28
2017-02-28T08:14:26.005Z,1010.3